createdAt,value
2023-03-23T16:00:06.054Z,11.74
2023-03-23T16:02:57.560Z,11.74
2023-03-23T16:05:44.978Z,11.76
2023-03-23T16:08:32.085Z,11.80
2023-03-23T16:11:19.640Z,11.75
2023-03-23T16:14:07.812Z,11.78
2023-03-23T16:16:54.501Z,12.23
2023-03-23T16:19:42.154Z,12.45
2023-03-23T16:22:28.827Z,12.33
2023-03-23T16:25:18.736Z,12.30
2023-03-23T16:28:06.082Z,13.01
2023-03-23T16:30:53.038Z,12.78
2023-03-23T16:33:41.450Z,12.77
2023-03-23T16:36:28.122Z,12.63
2023-03-23T16:39:18.849Z,12.62
2023-03-23T16:42:06.614Z,12.60
2023-03-23T16:44:54.858Z,12.33
2023-03-23T16:47:42.351Z,12.19
2023-03-23T16:50:30.371Z,12.30
2023-03-23T16:53:17.049Z,12.50
2023-03-23T16:56:04.760Z,12.63
2023-03-23T16:58:51.472Z,12.58
2023-03-23T17:01:38.307Z,12.65
2023-03-23T17:04:26.018Z,12.63
2023-03-23T17:07:14.743Z,12.59
2023-03-23T17:10:01.814Z,12.63
2023-03-23T17:12:48.982Z,12.57
2023-03-23T17:15:40.442Z,12.15
2023-03-23T17:18:29.002Z,11.87
2023-03-23T17:21:15.976Z,11.81
2023-03-23T17:24:03.345Z,11.57
2023-03-23T17:26:50.332Z,11.44
2023-03-23T17:29:37.004Z,11.45
2023-03-23T17:32:25.486Z,11.38
2023-03-23T17:35:12.175Z,11.37
2023-03-23T17:37:59.395Z,11.30
2023-03-23T17:40:47.301Z,11.25
2023-03-23T17:43:36.352Z,11.23
2023-03-23T17:46:23.264Z,11.20
2023-03-23T17:49:10.436Z,11.23
2023-03-23T17:52:01.205Z,11.24
2023-03-23T17:54:48.452Z,11.18
2023-03-23T17:57:35.409Z,11.20
2023-03-23T18:00:22.289Z,11.14
2023-03-23T18:03:09.665Z,11.07
2023-03-23T18:06:00.553Z,11.08
2023-03-23T18:08:47.256Z,11.04
2023-03-23T18:11:34.087Z,11.04
2023-03-23T18:14:21.745Z,11.07
2023-03-23T18:17:08.561Z,10.99
2023-03-23T18:19:55.358Z,10.95
2023-03-23T18:22:43.024Z,10.86
2023-03-23T18:25:30.103Z,10.92
2023-03-23T18:28:17.935Z,10.83
2023-03-23T18:31:16.022Z,10.80
2023-03-23T18:34:02.705Z,10.82
2023-03-23T18:36:49.741Z,10.75
2023-03-23T18:39:38.995Z,10.78
2023-03-23T18:42:27.722Z,10.87
2023-03-23T18:45:14.756Z,10.86
2023-03-23T18:48:04.803Z,10.81
2023-03-23T18:50:54.153Z,10.72
2023-03-23T18:53:41.696Z,10.70
2023-03-23T18:56:28.436Z,10.67
2023-03-23T18:59:15.578Z,10.76
2023-03-23T19:02:03.288Z,10.62
2023-03-23T19:04:53.782Z,10.62
2023-03-23T19:07:41.060Z,10.50
2023-03-23T19:10:27.043Z,10.55
2023-03-23T19:13:12.444Z,10.60
2023-03-23T19:15:57.580Z,10.47
2023-03-23T19:18:42.829Z,10.52
2023-03-23T19:21:32.043Z,10.57
2023-03-23T19:24:17.620Z,10.60
2023-03-23T19:27:02.960Z,10.66
2023-03-23T19:29:48.660Z,10.70
2023-03-23T19:32:33.779Z,10.68
2023-03-23T19:35:18.748Z,10.78
2023-03-23T19:38:05.206Z,10.76
2023-03-23T19:40:57.629Z,10.76
2023-03-23T19:43:43.197Z,10.73
2023-03-23T19:46:30.881Z,10.78
2023-03-23T19:49:16.860Z,10.74
2023-03-23T19:52:08.810Z,10.73
2023-03-23T19:54:58.330Z,10.70
2023-03-23T19:57:50.875Z,10.66
2023-03-23T20:00:37.094Z,10.46
2023-03-23T20:03:23.080Z,10.48
2023-03-23T20:06:15.631Z,10.54
2023-03-23T20:09:07.400Z,10.47
2023-03-23T20:11:53.685Z,10.41
2023-03-23T20:14:45.313Z,10.39
2023-03-23T20:17:30.863Z,10.24
2023-03-23T20:20:16.972Z,10.24
2023-03-23T20:23:04.399Z,10.26
2023-03-23T20:25:51.562Z,10.26
2023-03-23T20:28:37.447Z,10.26
2023-03-23T20:34:46.466Z,10.36
2023-03-23T20:37:53.944Z,10.38
2023-03-23T20:40:42.737Z,10.29
2023-03-23T20:43:32.424Z,10.32
2023-03-23T20:46:19.798Z,10.43
2023-03-23T20:49:06.208Z,10.39
2023-03-23T20:51:52.356Z,10.45
2023-03-23T20:54:38.955Z,10.44
2023-03-23T20:57:24.992Z,10.39
2023-03-23T21:00:16.114Z,10.51
2023-03-23T21:03:04.210Z,10.47
2023-03-23T21:05:49.553Z,10.51
2023-03-23T21:08:37.681Z,10.54
2023-03-23T21:11:25.656Z,10.52
2023-03-23T21:14:12.360Z,10.55
2023-03-23T21:17:01.455Z,10.57
2023-03-23T21:19:53.175Z,10.50
2023-03-23T21:22:40.208Z,10.55
2023-03-23T21:25:34.024Z,10.51
2023-03-23T21:28:22.093Z,10.39
2023-03-23T21:31:07.770Z,10.36
2023-03-23T21:34:00.524Z,10.30
2023-03-23T21:36:47.828Z,10.28
2023-03-23T21:39:33.561Z,10.24
2023-03-23T21:42:32.226Z,10.17
2023-03-23T21:45:25.658Z,10.14
2023-03-23T21:48:13.574Z,10.00
2023-03-23T21:51:08.466Z,10.04
2023-03-23T21:53:56.057Z,10.00
2023-03-23T21:59:43.386Z,9.96
2023-03-23T22:02:31.618Z,9.93
2023-03-23T22:05:18.648Z,9.77
2023-03-23T22:08:04.663Z,9.78
2023-03-23T22:11:01.226Z,9.81
2023-03-23T22:13:48.787Z,9.81
2023-03-23T22:16:35.590Z,9.76
2023-03-23T22:19:41.434Z,9.76
2023-03-23T22:22:28.066Z,9.65
2023-03-23T22:25:14.644Z,9.69
2023-03-23T22:28:03.450Z,9.70
2023-03-23T22:30:48.752Z,9.71
2023-03-23T22:33:35.560Z,9.68
2023-03-23T22:36:22.401Z,9.69
2023-03-23T22:39:08.839Z,9.72
2023-03-23T22:41:53.721Z,9.74
2023-03-23T22:44:38.821Z,9.72
2023-03-23T22:47:24.101Z,9.69
2023-03-23T22:50:11.282Z,9.68
2023-03-23T22:52:56.262Z,9.72
2023-03-23T22:55:43.735Z,9.64
2023-03-23T22:58:29.327Z,9.67
2023-03-23T23:01:18.950Z,9.68
2023-03-23T23:04:05.194Z,9.63
2023-03-23T23:06:55.376Z,9.59
2023-03-23T23:09:46.110Z,9.62
2023-03-23T23:12:35.945Z,9.57
2023-03-23T23:15:22.459Z,9.60
2023-03-23T23:18:12.841Z,9.60
2023-03-23T23:21:09.604Z,9.62
2023-03-23T23:23:55.931Z,9.53
2023-03-23T23:26:42.225Z,9.54
2023-03-23T23:29:28.769Z,9.59
2023-03-23T23:32:17.603Z,9.68
2023-03-23T23:35:06.776Z,9.81
2023-03-23T23:37:51.855Z,9.80
2023-03-23T23:40:36.977Z,9.76
2023-03-23T23:43:24.028Z,9.79
2023-03-23T23:46:10.165Z,9.84
2023-03-23T23:48:55.787Z,9.91
2023-03-23T23:51:41.201Z,9.90
2023-03-23T23:54:30.257Z,9.98
2023-03-23T23:57:17.005Z,10.03
